Terminal Aerodrome Forecast
Issued by NWS

Home | Current Version | Previous Version | Text Only | Print | Product List | Glossary On
Versions: 1 2 3 4 5 6 7 8 9 10 11 12 13 14 15 16 17 18 19 20 21 22 23
000
FTUS42 KFFC 250520
TAFFTY
TAF
KFTY 250520Z 2506/2606 25005KT P6SM VCSH SCT045 BKN080
     FM250800 25007KT P6SM VCSH BKN015 BKN050
     FM251400 27012G22KT P6SM SCT025
     FM251600 27013G23KT P6SM SCT040
     FM260100 27007KT P6SM FEW040=

USA.gov is the U.S. government's official web portal to all federal, state and local government web resources and services.